Time;durP1;ratioP1;P1;durP2;ratioP2;P2;SDS_P1;SDS_P2;PMS_P1;PMS_P2;Temp;Humidity;BMP_temperature;BMP_pressure;BME280_temperature;BME280_humidity;BME280_pressure;Samples;Min_cycle;Max_cycle;Signal;HPM_P1;HPM_P2
2021/11/09 00:01:03;;;;;;;20.73;10.25;;;;;;;4.04;95.08;102559.50;5074972;28;20025;-36
2021/11/09 00:03:32;;;;;;;24.63;11.18;;;;;;;4.07;95.58;102554.72;5074763;28;20468;-36
2021/11/09 00:06:07;;;;;;;22.33;10.20;;;;;;;4.03;95.97;102539.09;5073974;28;20035;-36
2021/11/09 00:08:40;;;;;;;21.88;10.00;;;;;;;4.01;94.28;102562.50;5074187;28;20036;-36
2021/11/09 00:11:06;;;;;;;22.55;10.80;;;;;;;4.00;95.02;102566.16;5074722;28;20052;-36
2021/11/09 00:13:31;;;;;;;26.00;10.70;;;;;;;3.92;95.13;102563.38;5073155;28;20040;-36
2021/11/09 00:15:57;;;;;;;24.43;10.73;;;;;;;3.79;95.23;102542.25;5074109;28;20116;-36
2021/11/09 00:18:22;;;;;;;24.63;10.85;;;;;;;3.91;95.76;102553.66;5073813;28;20025;-36
2021/11/09 00:20:47;;;;;;;16.07;9.90;;;;;;;3.80;92.95;102555.50;5073717;28;20028;-36
2021/11/09 00:23:13;;;;;;;21.30;9.50;;;;;;;3.78;92.90;102552.13;5074053;28;20067;-36
2021/11/09 00:25:40;;;;;;;22.42;10.02;;;;;;;3.95;95.36;102552.34;5073896;28;20059;-36
2021/11/09 00:28:07;;;;;;;22.85;10.57;;;;;;;3.92;94.87;102552.66;5074030;28;20485;-36
2021/11/09 00:30:33;;;;;;;25.80;11.27;;;;;;;3.86;94.36;102554.09;5073354;28;20486;-37
2021/11/09 00:33:00;;;;;;;20.23;10.23;;;;;;;3.92;95.32;102566.06;5073985;28;20028;-36
2021/11/09 00:35:26;;;;;;;;;;;;;;;3.99;94.76;102565.31;5074060;28;20032;-36
2021/11/09 00:37:53;;;;;;;25.80;13.43;;;;;;;3.78;94.46;102552.13;5073634;28;19915;-36
2021/11/09 00:40:22;;;;;;;24.33;14.65;;;;;;;3.86;95.77;102565.63;5073872;28;20071;-36
2021/11/09 00:42:48;;;;;;;24.08;10.80;;;;;;;3.72;93.66;102562.56;5073718;28;20445;-36
2021/11/09 00:45:14;;;;;;;24.92;11.88;;;;;;;3.82;94.57;102574.94;5073818;28;20025;-36
2021/11/09 00:47:41;;;;;;;25.05;10.35;;;;;;;3.80;95.53;102554.66;5073519;28;20051;-36
2021/11/09 00:50:09;;;;;;;24.25;10.30;;;;;;;3.85;95.79;102574.63;5073525;28;20031;-36
2021/11/09 00:52:34;;;;;;;24.90;10.82;;;;;;;3.90;96.62;102565.34;5073763;28;20069;-36
2021/11/09 00:55:00;;;;;;;21.80;9.10;;;;;;;3.87;96.46;102572.69;5073794;28;20028;-36
2021/11/09 00:57:27;;;;;;;21.65;9.63;;;;;;;3.83;95.85;102568.59;5073095;28;20484;-36
2021/11/09 00:59:52;;;;;;;;;;;;;;;3.88;95.16;102571.69;5074068;28;20025;-36
2021/11/09 01:02:17;;;;;;;20.92;10.63;;;;;;;3.72;95.32;102570.59;5073054;28;20402;-36
2021/11/09 01:04:43;;;;;;;24.17;9.87;;;;;;;3.73;96.58;102574.97;5072995;28;20098;-36
2021/11/09 01:07:09;;;;;;;17.45;8.50;;;;;;;3.81;96.91;102581.28;5073284;28;20039;-36
2021/11/09 01:09:34;;;;;;;25.30;10.37;;;;;;;3.73;96.31;102572.28;5073996;28;20033;-36
2021/11/09 01:12:01;;;;;;;20.50;7.90;;;;;;;3.74;97.39;102550.72;5073393;28;20742;-36
2021/11/09 01:14:26;;;;;;;19.77;9.20;;;;;;;3.72;95.91;102579.47;5072920;28;20104;-36
2021/11/09 01:16:53;;;;;;;17.00;8.25;;;;;;;3.79;96.95;102571.69;5073190;28;20527;-36
2021/11/09 01:19:19;;;;;;;26.38;8.93;;;;;;;3.38;95.26;102544.31;5073624;28;20028;-36
2021/11/09 01:21:45;;;;;;;24.80;9.57;;;;;;;3.52;94.37;102575.16;5072762;28;20107;-36
2021/11/09 01:24:11;;;;;;;30.70;10.25;;;;;;;3.61;96.52;102574.25;5073102;28;20082;-36
2021/11/09 01:26:38;;;;;;;20.35;9.95;;;;;;;3.50;96.30;102563.72;5073042;28;20039;-36
2021/11/09 01:29:06;;;;;;;21.25;9.68;;;;;;;3.60;96.03;102580.59;5073251;28;20028;-36
2021/11/09 01:31:33;;;;;;;21.73;9.55;;;;;;;3.60;96.50;102570.75;5073021;28;20024;-36
2021/11/09 01:33:59;;;;;;;22.88;9.30;;;;;;;3.55;96.71;102561.47;5073636;28;20024;-36
2021/11/09 01:36:25;;;;;;;;;;;;;;;3.71;95.84;102572.44;5073531;28;20024;-36
2021/11/09 01:38:50;;;;;;;20.52;9.48;;;;;;;3.59;96.77;102570.91;5072626;28;20427;-36
2021/11/09 01:41:16;;;;;;;25.00;10.53;;;;;;;3.58;97.07;102574.56;5072883;28;20059;-36
2021/11/09 01:43:43;;;;;;;23.13;9.13;;;;;;;3.66;97.57;102569.34;5072892;28;20036;-36
2021/11/09 01:46:10;;;;;;;23.88;10.13;;;;;;;3.60;97.71;102567.22;5073079;28;20107;-36
2021/11/09 01:48:36;;;;;;;30.08;11.15;;;;;;;3.57;97.97;102571.03;5072522;28;20025;-36
2021/11/09 01:51:05;;;;;;;27.88;10.52;;;;;;;3.59;98.04;102569.06;5072721;28;20025;-36
2021/11/09 01:53:32;;;;;;;25.88;9.60;;;;;;;3.47;97.44;102567.53;5073053;28;20523;-36
2021/11/09 01:56:01;;;;;;;31.65;12.68;;;;;;;3.65;97.90;102577.50;5072672;28;20029;-36
2021/11/09 01:58:27;;;;;;;34.20;11.73;;;;;;;3.50;95.98;102575.25;5072684;28;20025;-36
2021/11/09 02:00:59;;;;;;;22.63;11.00;;;;;;;3.41;96.91;102543.19;5072386;28;20039;-36
2021/11/09 02:03:26;;;;;;;24.73;10.77;;;;;;;3.43;95.18;102574.16;5072437;28;20524;-36
2021/11/09 02:05:53;;;;;;;25.20;11.82;;;;;;;3.42;95.93;102585.00;5072886;28;20073;-36
2021/11/09 02:08:19;;;;;;;20.33;10.48;;;;;;;3.32;95.38;102583.19;5072867;28;20032;-36
2021/11/09 02:10:46;;;;;;;22.35;9.70;;;;;;;3.22;94.41;102582.34;5072699;28;20045;-36
2021/11/09 02:13:13;;;;;;;27.25;12.90;;;;;;;3.34;97.23;102586.53;5073306;28;20044;-36
2021/11/09 02:15:40;;;;;;;24.08;11.45;;;;;;;3.34;97.43;102589.22;5072716;28;20025;-36
2021/11/09 02:18:08;;;;;;;28.48;11.85;;;;;;;3.26;95.56;102594.41;5072942;28;20423;-36
2021/11/09 02:20:34;;;;;;;29.23;11.45;;;;;;;3.12;97.25;102562.75;5072697;28;20090;-36
2021/11/09 02:23:01;;;;;;;26.30;11.30;;;;;;;3.33;98.28;102594.72;5073101;28;20574;-36
2021/11/09 02:25:29;;;;;;;29.63;12.98;;;;;;;3.04;97.93;102557.28;5074582;28;20115;-36
2021/11/09 02:27:55;;;;;;;25.75;11.98;;;;;;;3.22;97.17;102586.81;5076410;28;20392;-36
2021/11/09 02:30:23;;;;;;;23.65;11.70;;;;;;;3.23;98.42;102578.66;5076358;28;20033;-36
2021/11/09 02:32:50;;;;;;;25.27;11.48;;;;;;;3.17;97.78;102583.72;5075959;28;20033;-36
2021/11/09 02:35:16;;;;;;;28.38;12.13;;;;;;;3.29;98.35;102591.47;5076751;28;20392;-36
2021/11/09 02:37:42;;;;;;;;;;;;;;;3.36;97.49;102595.25;5076390;28;20115;-36
2021/11/09 02:40:09;;;;;;;27.38;12.02;;;;;;;3.38;98.56;102581.75;5076240;28;20386;-36
2021/11/09 02:42:38;;;;;;;28.88;13.50;;;;;;;3.40;99.08;102578.94;5075836;28;20438;-36
2021/11/09 02:45:27;;;;;;;25.60;12.82;;;;;;;3.41;98.98;102575.28;5075603;28;20440;-36
2021/11/09 02:48:22;;;;;;;27.40;13.30;;;;;;;3.36;99.02;102575.69;5076008;28;20483;-36
2021/11/09 02:50:48;;;;;;;26.02;11.68;;;;;;;3.38;99.27;102570.22;5075090;28;20033;-36
2021/11/09 02:53:37;;;;;;;27.60;12.98;;;;;;;3.42;99.48;102568.97;5075667;28;20111;-36
2021/11/09 02:56:11;;;;;;;34.80;13.68;;;;;;;3.42;99.22;102579.66;5076428;28;20020;-36
2021/11/09 03:03:55;;;;;;;25.45;13.50;;;;;;;3.33;99.36;102560.78;5075631;28;20127;-36
2021/11/09 03:11:25;;;;;;;33.17;13.77;;;;;;;3.50;100.00;102569.91;5075241;28;20056;-36
2021/11/09 03:13:51;;;;;;;28.27;13.73;;;;;;;3.56;100.00;102584.53;5075327;28;20044;-36
2021/11/09 03:16:17;;;;;;;30.05;14.30;;;;;;;3.48;100.00;102565.72;5075280;28;20024;-36
2021/11/09 03:19:01;;;;;;;29.33;14.02;;;;;;;3.55;100.00;102573.00;5075505;28;20456;-36
2021/11/09 03:40:37;;;;;;;31.05;13.25;;;;;;;3.53;100.00;102569.63;5075323;28;20051;-36
2021/11/09 03:45:46;;;;;;;28.27;13.77;;;;;;;3.54;100.00;102575.81;5074747;28;20062;-35
2021/11/09 03:48:15;;;;;;;32.87;13.63;;;;;;;3.38;100.00;102576.41;5074663;28;20025;-36
2021/11/09 03:50:42;;;;;;;26.38;12.70;;;;;;;3.41;100.00;102575.28;5074555;28;20259;-36
2021/11/09 03:58:10;;;;;;;34.15;13.30;;;;;;;3.48;100.00;102577.25;5074235;28;20396;-36
2021/11/09 04:03:15;;;;;;;28.33;14.27;;;;;;;3.43;100.00;102576.84;5074435;28;20044;-36
2021/11/09 04:05:44;;;;;;;32.20;14.90;;;;;;;3.41;100.00;102573.44;5074474;28;20050;-36
2021/11/09 04:13:24;;;;;;;32.60;14.55;;;;;;;3.46;100.00;102578.34;5074194;28;20400;-36
2021/11/09 04:18:38;;;;;;;30.83;14.73;;;;;;;3.35;100.00;102587.38;5074398;28;20111;-36
2021/11/09 04:29:34;;;;;;;35.80;14.63;;;;;;;3.40;100.00;102594.97;5074374;28;20098;-36
2021/11/09 05:11:15;;;;;;;34.67;16.93;;;;;;;3.39;100.00;102615.53;5073522;28;20056;-36
2021/11/09 05:13:41;;;;;;;32.58;16.55;;;;;;;3.42;100.00;102617.94;5073808;28;20029;-36
2021/11/09 05:16:06;;;;;;;44.00;17.57;;;;;;;3.35;100.00;102604.25;5072834;28;20025;-36
2021/11/09 05:18:32;;;;;;;41.20;17.30;;;;;;;3.44;100.00;102628.50;5072919;28;20017;-36
2021/11/09 05:20:58;;;;;;;41.72;18.52;;;;;;;3.41;100.00;102626.09;5073412;28;20028;-36
2021/11/09 05:23:24;;;;;;;33.90;15.55;;;;;;;3.44;100.00;102628.50;5073607;28;20032;-36
2021/11/09 05:25:50;;;;;;;34.20;16.67;;;;;;;3.42;100.00;102620.63;5073009;28;20074;-36
2021/11/09 05:28:16;;;;;;;36.75;16.50;;;;;;;3.43;100.00;102626.81;5073046;28;20036;-36
2021/11/09 05:30:45;;;;;;;42.40;16.83;;;;;;;3.30;100.00;102617.22;5072934;28;20051;-36
2021/11/09 05:33:11;;;;;;;37.10;16.23;;;;;;;3.31;100.00;102626.91;5073544;28;20349;-36
2021/11/09 05:35:37;;;;;;;34.53;14.38;;;;;;;3.39;100.00;102620.88;5073009;28;20128;-36
2021/11/09 05:38:05;;;;;;;41.60;17.55;;;;;;;3.35;100.00;102628.34;5072963;28;20028;-36
2021/11/09 05:40:35;;;;;;;41.83;16.25;;;;;;;3.34;100.00;102626.66;5072892;28;20043;-36
2021/11/09 05:43:01;;;;;;;46.95;18.77;;;;;;;3.40;100.00;102627.06;5073140;28;20093;-36
2021/11/09 05:45:28;;;;;;;39.83;16.17;;;;;;;3.36;100.00;102631.84;5073373;28;20043;-36
2021/11/09 05:47:53;;;;;;;41.15;16.65;;;;;;;3.28;100.00;102635.25;5073648;28;20471;-36
2021/11/09 05:50:20;;;;;;;39.55;17.65;;;;;;;3.24;100.00;102614.25;5073104;28;20064;-36
2021/11/09 05:52:45;;;;;;;37.60;16.90;;;;;;;3.31;100.00;102634.94;5072380;28;20461;-36
2021/11/09 05:55:11;;;;;;;47.50;17.37;;;;;;;3.34;100.00;102632.00;5073047;28;20035;-36
2021/11/09 05:57:36;;;;;;;37.57;17.43;;;;;;;3.34;100.00;102648.03;5072510;28;20036;-36
2021/11/09 06:00:05;;;;;;;35.47;14.53;;;;;;;3.40;100.00;102656.50;5074752;28;20056;-36
2021/11/09 06:02:31;;;;;;;41.53;16.70;;;;;;;3.40;100.00;102656.50;5076692;28;20028;-36
2021/11/09 06:04:56;;;;;;;41.70;16.97;;;;;;;3.37;100.00;102652.28;5076851;28;20039;-36
2021/11/09 06:07:22;;;;;;;35.63;16.40;;;;;;;3.26;100.00;102631.00;5076550;28;20032;-36
2021/11/09 06:09:47;;;;;;;46.07;17.43;;;;;;;3.35;100.00;102647.06;5075311;28;20090;-36
2021/11/09 06:12:12;;;;;;;37.33;16.53;;;;;;;3.32;100.00;102649.19;5077735;28;20052;-36
2021/11/09 06:14:38;;;;;;;33.07;15.53;;;;;;;3.29;100.00;102646.78;5077486;28;20020;-36
2021/11/09 06:17:03;;;;;;;31.33;14.40;;;;;;;3.33;100.00;102657.06;5077078;28;20033;-36
2021/11/09 06:19:29;;;;;;;38.17;14.98;;;;;;;3.36;100.00;102658.59;5076855;28;20361;-36
2021/11/09 06:21:54;;;;;;;37.33;16.13;;;;;;;3.27;100.00;102654.06;5076079;28;20028;-36
2021/11/09 06:24:20;;;;;;;38.00;16.73;;;;;;;3.26;100.00;102655.91;5075471;28;20082;-36
2021/11/09 06:26:45;;;;;;;40.67;16.87;;;;;;;3.25;100.00;102659.56;5076552;28;20449;-36
2021/11/09 06:29:11;;;;;;;60.83;18.73;;;;;;;3.27;100.00;102654.06;5076605;28;20024;-36
2021/11/09 06:31:37;;;;;;;37.67;16.57;;;;;;;3.31;100.00;102645.63;5076144;28;20025;-36
2021/11/09 06:34:02;;;;;;;41.55;18.02;;;;;;;3.32;100.00;102668.75;5076454;28;20422;-36
2021/11/09 06:36:28;;;;;;;34.60;15.95;;;;;;;3.20;100.00;102648.44;5076584;28;20116;-36
2021/11/09 06:38:53;;;;;;;38.97;17.40;;;;;;;3.26;100.00;102652.38;5076158;28;20029;-36
2021/11/09 06:41:20;;;;;;;37.73;16.70;;;;;;;3.23;100.00;102650.00;5076377;28;20032;-36
2021/11/09 06:43:45;;;;;;;34.03;16.02;;;;;;;3.36;100.00;102677.31;5075841;28;20035;-36
2021/11/09 06:46:10;;;;;;;36.87;16.37;;;;;;;3.22;100.00;102662.53;5076004;28;20029;-36
2021/11/09 06:48:36;;;;;;;32.70;16.67;;;;;;;3.27;100.00;102664.75;5076026;28;20033;-36
2021/11/09 06:51:03;;;;;;;40.67;15.77;;;;;;;3.28;100.00;102666.47;5075902;28;20078;-36
2021/11/09 06:53:29;;;;;;;41.13;17.33;;;;;;;3.28;100.00;102672.66;5076608;28;20027;-36
2021/11/09 06:55:55;;;;;;;33.45;15.13;;;;;;;3.35;100.00;102670.28;5075748;28;20029;-36
2021/11/09 06:58:20;;;;;;;38.30;16.40;;;;;;;3.27;100.00;102662.09;5075402;28;20025;-36
2021/11/09 07:00:46;;;;;;;36.87;15.67;;;;;;;3.33;100.00;102678.44;5075993;28;20130;-36
2021/11/09 07:03:12;;;;;;;42.00;15.63;;;;;;;3.38;100.00;102691.41;5075936;28;20035;-36
2021/11/09 07:05:37;;;;;;;35.47;16.23;;;;;;;3.36;100.00;102690.69;5075265;28;20131;-36
2021/11/09 07:08:03;;;;;;;40.90;17.80;;;;;;;3.20;100.00;102669.84;5075892;28;20036;-36
2021/11/09 07:10:28;;;;;;;34.08;15.73;;;;;;;3.31;100.00;102693.78;5075461;28;20051;-36
2021/11/09 07:12:53;;;;;;;31.40;14.77;;;;;;;3.33;100.00;102696.31;5074946;28;20040;-36
2021/11/09 07:15:20;;;;;;;38.83;14.40;;;;;;;3.33;100.00;102693.66;5075203;28;20173;-36
2021/11/09 07:17:45;;;;;;;38.15;15.38;;;;;;;3.14;100.00;102675.75;5075407;28;20035;-36
2021/11/09 07:20:16;;;;;;;36.53;15.45;;;;;;;3.36;100.00;102706.72;5075700;28;20024;-36
2021/11/09 07:22:42;;;;;;;35.90;16.23;;;;;;;3.33;100.00;102709.69;5074965;28;20472;-36
2021/11/09 07:25:09;;;;;;;33.85;14.18;;;;;;;3.35;100.00;102708.56;5075308;28;20028;-36
2021/11/09 07:27:34;;;;;;;36.88;16.10;;;;;;;3.33;100.00;102704.34;5075142;28;20028;-36
2021/11/09 07:30:02;;;;;;;31.80;15.83;;;;;;;3.33;100.00;102707.88;5075759;28;20040;-36
2021/11/09 07:32:27;;;;;;;35.10;15.48;;;;;;;3.32;100.00;102711.53;5075318;28;20328;-36
2021/11/09 07:34:53;;;;;;;37.90;16.50;;;;;;;3.28;100.00;102694.06;5075140;28;20436;-36
2021/11/09 07:37:18;;;;;;;40.17;17.63;;;;;;;3.44;100.00;102720.25;5075061;28;20025;-36
2021/11/09 07:39:44;;;;;;;29.80;16.27;;;;;;;3.47;100.00;102714.66;5074850;28;20028;-36
2021/11/09 07:42:09;;;;;;;40.78;17.60;;;;;;;3.55;100.00;102712.09;5074972;28;20383;-36
2021/11/09 07:44:35;;;;;;;36.10;16.60;;;;;;;3.54;100.00;102706.91;5075732;28;20372;-36
2021/11/09 07:47:01;;;;;;;34.42;15.07;;;;;;;3.64;100.00;102725.63;5074814;28;20263;-36
2021/11/09 07:49:28;;;;;;;39.97;17.63;;;;;;;3.68;100.00;102719.03;5074927;28;20063;-36
2021/11/09 07:51:53;;;;;;;34.03;16.58;;;;;;;3.73;100.00;102725.66;5074216;28;20029;-36
2021/11/09 07:54:22;;;;;;;37.43;15.87;;;;;;;3.81;100.00;102719.59;5074452;28;20534;-36
2021/11/09 07:56:48;;;;;;;35.08;16.63;;;;;;;3.83;100.00;102713.13;5074591;28;20070;-36
2021/11/09 07:59:27;;;;;;;44.90;17.52;;;;;;;3.94;100.00;102721.97;5074526;28;20111;-36
2021/11/09 08:04:52;;;;;;;32.17;15.63;;;;;;;4.10;100.00;102733.81;5032975;28;20048;-36
2021/11/09 08:07:21;;;;;;;35.42;15.75;;;;;;;4.14;100.00;102729.00;5032454;28;20451;-36
2021/11/09 08:09:46;;;;;;;30.27;16.08;;;;;;;4.22;100.00;102731.81;5032591;28;20553;-36
2021/11/09 08:12:12;;;;;;;31.73;14.93;;;;;;;4.32;100.00;102740.69;5031832;28;20148;-36
2021/11/09 08:14:38;;;;;;;39.00;17.50;;;;;;;4.38;100.00;102733.91;5032137;28;20440;-36
2021/11/09 08:17:04;;;;;;;40.53;16.42;;;;;;;4.43;100.00;102734.31;5031803;28;20479;-36
2021/11/09 08:19:29;;;;;;;;;;;;;;;4.53;100.00;102728.94;5032167;28;20033;-36
2021/11/09 08:21:56;;;;;;;38.75;16.40;;;;;;;4.58;100.00;102729.34;5031770;28;19909;-36
2021/11/09 08:24:23;;;;;;;34.72;16.52;;;;;;;4.64;100.00;102740.34;5031612;28;20068;-36
2021/11/09 08:26:49;;;;;;;35.75;15.65;;;;;;;4.71;100.00;102740.59;5031792;28;20434;-36
2021/11/09 08:29:15;;;;;;;32.28;16.23;;;;;;;4.80;100.00;102730.84;5032508;28;20466;-36
2021/11/09 08:31:43;;;;;;;;;;;;;;;4.88;100.00;102734.47;5032157;28;20033;-36
2021/11/09 08:34:09;;;;;;;35.38;15.60;;;;;;;4.93;100.00;102738.53;5031886;28;19917;-36
2021/11/09 08:36:35;;;;;;;37.50;16.10;;;;;;;4.90;100.00;102711.03;5031699;28;20535;-36
2021/11/09 08:39:05;;;;;;;32.60;14.27;;;;;;;5.00;100.00;102719.03;5032009;28;20037;-36
2021/11/09 08:41:39;;;;;;;39.58;15.55;;;;;;;5.17;100.00;102733.47;5049942;28;20044;-36
2021/11/09 08:44:07;;;;;;;41.20;16.15;;;;;;;5.19;100.00;102728.81;5073892;28;20384;-36
2021/11/09 08:46:41;;;;;;;47.20;16.13;;;;;;;5.28;100.00;102730.59;5073368;28;20444;-36
2021/11/09 08:49:08;;;;;;;37.25;15.10;;;;;;;5.29;100.00;102720.72;5073915;28;20460;-36
2021/11/09 08:51:35;;;;;;;38.63;14.93;;;;;;;5.44;100.00;102727.25;5073849;28;20024;-36
2021/11/09 08:54:17;;;;;;;39.67;15.68;;;;;;;5.50;100.00;102733.84;5073930;28;20388;-36
2021/11/09 09:04:51;;;;;;;34.55;15.30;;;;;;;5.84;99.21;102734.03;5073788;28;20606;-36
2021/11/09 09:07:17;;;;;;;30.35;14.02;;;;;;;5.92;99.00;102729.59;5073129;28;20025;-36
2021/11/09 09:09:42;;;;;;;33.83;13.60;;;;;;;5.93;98.27;102717.03;5073987;28;20043;-36
2021/11/09 09:12:08;;;;;;;41.93;17.63;;;;;;;6.01;98.68;102710.91;5073157;28;20063;-36
2021/11/09 09:14:33;;;;;;;32.05;14.80;;;;;;;6.10;98.87;102704.56;5073380;28;20025;-36
2021/11/09 09:17:01;;;;;;;30.55;14.93;;;;;;;6.29;97.99;102722.34;5073284;28;20074;-36
2021/11/09 09:19:31;;;;;;;25.80;12.70;;;;;;;6.35;97.49;102724.41;5073015;28;20024;-36
2021/11/09 09:22:09;;;;;;;38.17;14.50;;;;;;;6.44;97.19;102731.50;5073185;28;20033;-36
2021/11/09 09:24:44;;;;;;;30.92;11.80;;;;;;;6.50;96.89;102725.53;5073511;28;20119;-36
2021/11/09 09:57:14;;;;;;;28.42;10.88;;;;;;;7.39;92.62;102692.78;5031339;28;20038;-36
2021/11/09 09:59:43;;;;;;;26.35;9.77;;;;;;;7.45;91.55;102686.72;5030762;28;20043;-36
2021/11/09 10:02:24;;;;;;;27.00;10.07;;;;;;;7.68;91.61;102705.78;5030757;28;20049;-36
2021/11/09 10:05:11;;;;;;;29.33;11.55;;;;;;;7.76;91.89;102715.75;5031462;28;20048;-36
2021/11/09 10:07:42;;;;;;;24.98;11.07;;;;;;;7.85;91.97;102720.09;5031112;28;20128;-36
2021/11/09 10:10:10;;;;;;;33.78;10.18;;;;;;;7.92;90.84;102720.28;5030826;28;20030;-36
2021/11/09 10:12:38;;;;;;;22.27;9.82;;;;;;;7.98;90.01;102720.44;5031027;28;20056;-36
2021/11/09 10:15:14;;;;;;;31.27;10.50;;;;;;;8.04;89.17;102713.53;5030564;28;20049;-36
2021/11/09 10:17:44;;;;;;;23.08;9.13;;;;;;;8.11;89.48;102724.50;5030852;28;20033;-36
2021/11/09 10:20:17;;;;;;;24.55;9.25;;;;;;;8.19;89.99;102721.78;5031237;28;20421;-36
2021/11/09 10:22:50;;;;;;;21.65;9.48;;;;;;;8.22;88.97;102710.69;5031216;28;20055;-36
2021/11/09 10:25:17;;;;;;;27.63;9.60;;;;;;;8.33;87.02;102723.81;5030832;28;20040;-36
2021/11/09 10:27:45;;;;;;;30.10;10.38;;;;;;;8.38;87.49;102717.94;5031126;28;20061;-36
2021/11/09 10:30:15;;;;;;;25.77;9.35;;;;;;;8.43;86.82;102719.09;5030702;28;20033;-36
2021/11/09 10:32:41;;;;;;;29.17;9.65;;;;;;;8.57;86.93;102719.41;5036056;28;20098;-36
2021/11/09 10:35:10;;;;;;;27.52;8.93;;;;;;;8.63;86.44;102722.25;5073396;28;20032;-36
2021/11/09 10:37:45;;;;;;;22.30;8.68;;;;;;;8.58;86.30;102700.34;5072212;28;20020;-36
2021/11/09 10:40:26;;;;;;;24.73;9.27;;;;;;;8.54;86.16;102682.00;5072528;28;20025;-36
2021/11/09 10:42:54;;;;;;;26.73;9.70;;;;;;;8.84;86.16;102710.09;5072313;28;20044;-36
2021/11/09 10:45:23;;;;;;;33.67;10.13;;;;;;;8.94;85.92;102703.47;5072782;28;20109;-36
2021/11/09 10:48:00;;;;;;;24.48;8.95;;;;;;;8.92;85.81;102686.59;5074688;28;20027;-36
2021/11/09 10:50:29;;;;;;;25.35;9.57;;;;;;;9.01;84.98;102685.53;5075999;28;20032;-36
2021/11/09 10:53:09;;;;;;;18.55;7.80;;;;;;;9.17;84.39;102705.38;5075874;28;20357;-36
2021/11/09 11:06:17;;;;;;;24.67;7.63;;;;;;;9.47;82.39;102707.25;5075807;28;20078;-35
2021/11/09 11:08:44;;;;;;;24.23;8.75;;;;;;;9.49;80.69;102704.34;5076547;28;20097;-36
2021/11/09 11:11:18;;;;;;;22.33;8.15;;;;;;;9.52;81.66;102690.50;5076167;28;20134;-36
2021/11/09 11:13:43;;;;;;;21.85;7.72;;;;;;;9.64;81.59;102694.47;5075620;28;20064;-36
2021/11/09 11:16:11;;;;;;;25.20;9.63;;;;;;;9.66;80.71;102699.66;5075553;28;20055;-36
2021/11/09 11:18:48;;;;;;;24.70;9.43;;;;;;;9.73;81.51;102701.50;5075931;28;20028;-36
2021/11/09 11:21:16;;;;;;;21.60;7.72;;;;;;;9.74;80.99;102691.53;5076319;28;20020;-36
2021/11/09 11:23:44;;;;;;;28.73;11.43;;;;;;;9.78;80.85;102684.75;5075920;28;20040;-36
2021/11/09 11:26:10;;;;;;;20.80;9.65;;;;;;;9.83;78.10;102695.00;5075527;28;20027;-36
2021/11/09 11:28:43;;;;;;;22.20;9.23;;;;;;;9.86;79.36;102698.19;5075792;28;20051;-36
2021/11/09 11:31:09;;;;;;;25.95;9.32;;;;;;;9.88;79.12;102698.00;5075940;28;20031;-36
2021/11/09 11:33:35;;;;;;;29.17;9.02;;;;;;;9.84;77.63;102686.72;5075694;28;20027;-36
2021/11/09 11:36:01;;;;;;;21.02;7.32;;;;;;;9.94;78.00;102697.28;5074824;28;20104;-36
2021/11/09 11:38:26;;;;;;;21.98;8.80;;;;;;;10.01;78.13;102699.06;5075502;28;20024;-36
2021/11/09 11:40:57;;;;;;;23.92;9.10;;;;;;;10.09;78.68;102694.59;5075139;28;20468;-36
2021/11/09 11:43:41;;;;;;;21.55;7.20;;;;;;;10.16;79.65;102696.41;5074713;28;20488;-36
2021/11/09 11:46:07;;;;;;;25.27;9.10;;;;;;;10.15;77.79;102704.69;5074860;28;20081;-36
2021/11/09 11:48:58;;;;;;;26.03;8.93;;;;;;;10.20;77.92;102696.88;5075663;28;20119;-36
2021/11/09 11:51:24;;;;;;;21.25;7.43;;;;;;;10.20;76.68;102691.44;5075131;28;20124;-36
2021/11/09 11:53:54;;;;;;;22.80;7.88;;;;;;;10.17;75.64;102681.88;5075063;28;20025;-36
2021/11/09 11:56:20;;;;;;;25.85;7.65;;;;;;;10.20;76.58;102686.03;5074587;28;20111;-36
2021/11/09 11:58:46;;;;;;;17.58;7.10;;;;;;;10.30;77.47;102689.38;5074417;28;20024;-36
2021/11/09 12:01:11;;;;;;;23.80;7.47;;;;;;;10.28;75.48;102672.50;5074560;28;20029;-36
2021/11/09 12:03:38;;;;;;;20.80;7.70;;;;;;;10.27;76.07;102663.53;5074452;28;20032;-36
2021/11/09 12:06:16;;;;;;;;;;;;;;;10.34;76.60;102670.91;5074714;28;20027;-36
2021/11/09 12:08:49;;;;;;;23.10;8.13;;;;;;;10.31;76.95;102666.72;5075297;28;19969;-37
2021/11/09 12:11:23;;;;;;;24.40;7.75;;;;;;;10.31;77.13;102672.97;5074809;28;20083;-36
2021/11/09 12:13:59;;;;;;;22.25;7.75;;;;;;;10.31;76.30;102664.84;5074477;28;20021;-36
2021/11/09 12:16:44;;;;;;;20.00;7.32;;;;;;;10.36;77.01;102658.06;5075021;28;20033;-36
2021/11/09 12:19:44;;;;;;;21.75;7.07;;;;;;;10.41;76.89;102661.88;5074512;28;20032;-36
2021/11/09 12:22:12;;;;;;;17.48;6.65;;;;;;;10.43;76.00;102664.38;5074906;28;20047;-36
2021/11/09 12:24:49;;;;;;;22.25;7.85;;;;;;;10.47;76.07;102653.00;5073856;28;20464;-36
2021/11/09 12:27:14;;;;;;;;;;;;;;;10.53;78.24;102654.97;5074469;28;20061;-36
2021/11/09 12:29:53;;;;;;;18.98;8.07;;;;;;;10.44;76.01;102639.88;5074440;28;19912;-36
2021/11/09 12:32:32;;;;;;;19.15;7.03;;;;;;;10.53;74.27;102649.56;5074457;28;20035;-36
2021/11/09 12:35:01;;;;;;;22.13;7.85;;;;;;;10.57;75.04;102645.47;5074440;28;20025;-36
2021/11/09 12:37:26;;;;;;;23.10;6.88;;;;;;;10.54;73.39;102631.47;5073534;28;20036;-36
2021/11/09 12:40:31;;;;;;;18.17;6.10;;;;;;;10.56;73.55;102638.38;5074482;28;20031;-36
2021/11/09 12:43:20;;;;;;;20.65;6.32;;;;;;;10.51;74.72;102643.50;5073656;28;20108;-36
2021/11/09 12:45:50;;;;;;;23.02;6.70;;;;;;;10.50;73.55;102639.13;5074030;28;20020;-36
2021/11/09 12:48:24;;;;;;;23.15;6.88;;;;;;;10.55;73.94;102625.03;5074148;28;20032;-36
2021/11/09 12:51:04;;;;;;;17.98;6.72;;;;;;;10.54;72.50;102637.75;5073608;28;20024;-36
2021/11/09 12:53:30;;;;;;;19.48;6.07;;;;;;;10.53;73.03;102633.31;5074046;28;20038;-36
2021/11/09 12:56:21;;;;;;;23.02;6.82;;;;;;;10.61;72.97;102631.56;5073488;28;20029;-36
2021/11/09 12:58:57;;;;;;;21.00;6.05;;;;;;;10.64;72.89;102625.75;5071672;28;20069;-36
2021/11/09 13:01:34;;;;;;;23.17;6.18;;;;;;;10.66;71.99;102629.97;5073788;28;20031;-36
2021/11/09 13:06:52;;;;;;;15.00;5.97;;;;;;;10.51;73.53;102632.69;5074088;28;20401;-36
2021/11/09 13:11:51;;;;;;;20.98;7.65;;;;;;;10.38;72.93;102608.16;5072748;28;20453;-36
2021/11/09 13:14:18;;;;;;;22.67;6.63;;;;;;;10.33;73.22;102605.16;5073196;28;20062;-36
2021/11/09 13:16:49;;;;;;;18.98;6.28;;;;;;;10.43;73.39;102621.94;5073232;28;20024;-36
2021/11/09 13:19:17;;;;;;;23.40;6.20;;;;;;;10.50;72.83;102613.94;5073207;28;20503;-37
2021/11/09 13:21:51;;;;;;;22.98;6.88;;;;;;;10.57;72.55;102618.41;5073141;28;20043;-36
2021/11/09 13:24:18;;;;;;;27.92;10.73;;;;;;;10.60;71.83;102616.38;5073699;28;20461;-36
2021/11/09 13:26:52;;;;;;;16.17;6.72;;;;;;;10.51;72.38;102594.81;5072748;28;20115;-36
2021/11/09 13:29:17;;;;;;;21.20;6.28;;;;;;;10.52;71.30;102580.25;5072871;28;20480;-36
2021/11/09 13:31:45;;;;;;;24.93;6.83;;;;;;;10.57;71.20;102588.66;5073025;28;20021;-36
2021/11/09 13:34:11;;;;;;;17.77;5.97;;;;;;;10.65;72.46;102603.94;5073496;28;20056;-36
2021/11/09 13:36:36;;;;;;;18.63;6.88;;;;;;;10.65;70.72;102600.41;5073535;28;20056;-36
2021/11/09 13:39:02;;;;;;;18.30;5.97;;;;;;;10.53;71.42;102584.63;5073574;28;20071;-36
2021/11/09 13:41:31;;;;;;;17.40;6.13;;;;;;;10.64;72.08;102590.59;5073052;28;20033;-36
2021/11/09 13:44:10;;;;;;;19.17;5.70;;;;;;;10.64;71.62;102596.88;5073009;28;20486;-36
2021/11/09 13:46:39;;;;;;;19.58;6.00;;;;;;;10.61;70.92;102596.41;5073318;28;20472;-36
2021/11/09 13:49:09;;;;;;;19.88;6.43;;;;;;;10.58;71.53;102593.03;5073288;28;20043;-36
2021/11/09 13:51:41;;;;;;;20.20;6.13;;;;;;;10.58;72.47;102594.91;5073187;28;20114;-36
2021/11/09 13:54:18;;;;;;;16.33;5.53;;;;;;;10.51;71.66;102585.88;5072961;28;20461;-36
2021/11/09 13:56:46;;;;;;;14.57;4.97;;;;;;;10.56;70.92;102592.38;5073499;28;20051;-36